createdAt,value
2018-09-19T00:00:32.354Z,15.58
2018-09-19T00:01:32.429Z,15.71
2018-09-19T00:02:32.333Z,15.62
2018-09-19T00:03:32.331Z,15.62
2018-09-19T00:04:31.812Z,15.56
2018-09-19T00:05:32.064Z,15.56
2018-09-19T00:06:32.322Z,15.62
2018-09-19T00:07:32.053Z,15.53
2018-09-19T00:08:32.302Z,15.56
2018-09-19T00:09:32.303Z,15.52
2018-09-19T00:10:32.035Z,15.52
2018-09-19T00:11:31.773Z,15.52
2018-09-19T00:12:32.287Z,15.55
2018-09-19T00:13:32.360Z,15.53
2018-09-19T00:14:32.275Z,15.51
2018-09-19T00:15:32.272Z,15.52
2018-09-19T00:16:32.268Z,15.67
2018-09-19T00:17:31.993Z,15.55
2018-09-19T00:18:32.248Z,15.53
2018-09-19T00:19:32.243Z,15.49
2018-09-19T00:20:32.238Z,15.47
2018-09-19T00:21:32.237Z,15.53
2018-09-19T00:22:32.271Z,15.53
2018-09-19T00:23:31.975Z,15.59
2018-09-19T00:24:32.220Z,15.49
2018-09-19T00:25:32.222Z,15.55
2018-09-19T00:26:31.945Z,15.53
2018-09-19T00:27:32.209Z,15.52
2018-09-19T00:28:32.203Z,15.53
2018-09-19T00:29:32.194Z,15.47
2018-09-19T00:30:32.197Z,15.58
2018-09-19T00:31:32.204Z,15.58
2018-09-19T00:32:31.919Z,15.45
2018-09-19T00:33:32.169Z,15.62
2018-09-19T00:34:31.900Z,15.52
2018-09-19T00:35:32.171Z,15.51
2018-09-19T00:36:31.886Z,15.47
2018-09-19T00:37:31.889Z,15.49
2018-09-19T00:38:32.140Z,15.56
2018-09-19T00:39:32.161Z,15.53
2018-09-19T00:40:32.209Z,15.47
2018-09-19T00:41:31.884Z,15.43
2018-09-19T00:42:31.889Z,15.41
2018-09-19T00:43:32.106Z,15.45
2018-09-19T00:44:31.890Z,15.45
2018-09-19T00:45:32.092Z,15.45
2018-09-19T00:46:31.834Z,15.44
2018-09-19T00:47:32.089Z,15.41
2018-09-19T00:48:32.081Z,15.47
2018-09-19T00:49:32.074Z,15.52
2018-09-19T00:50:31.809Z,15.51
2018-09-19T00:51:32.062Z,15.51
2018-09-19T00:52:32.057Z,15.47
2018-09-19T00:53:32.051Z,15.47
2018-09-19T00:54:32.102Z,15.45
2018-09-19T00:55:31.787Z,15.43
2018-09-19T00:56:32.040Z,15.49
2018-09-19T00:57:32.028Z,15.41
2018-09-19T00:58:31.761Z,15.41
2018-09-19T00:59:32.018Z,15.41
2018-09-19T01:00:32.037Z,15.41
2018-09-19T01:01:32.080Z,15.38
2018-09-19T01:02:31.999Z,15.35
2018-09-19T01:03:31.738Z,15.35
2018-09-19T01:04:31.994Z,15.34
2018-09-19T01:05:32.005Z,15.33
2018-09-19T01:06:31.983Z,15.3
2018-09-19T01:07:31.970Z,15.27
2018-09-19T01:08:32.036Z,15.41
2018-09-19T01:09:31.961Z,15.38
2018-09-19T01:10:32.018Z,15.37
2018-09-19T01:11:31.996Z,15.37
2018-09-19T01:16:18.398Z,15.33
2018-09-19T01:17:18.354Z,15.38
2018-09-19T01:18:21.359Z,15.38
2018-09-19T01:19:18.107Z,15.43
2018-09-19T01:20:18.336Z,15.4
2018-09-19T01:21:18.317Z,15.35
2018-09-19T01:22:18.312Z,15.31
2018-09-19T01:23:18.372Z,15.34
2018-09-19T01:24:18.319Z,15.34
2018-09-19T01:25:18.306Z,15.35
2018-09-19T01:26:18.286Z,15.34
2018-09-19T01:27:18.285Z,15.31
2018-09-19T01:28:18.274Z,15.34
2018-09-19T01:29:18.264Z,15.3
2018-09-19T01:30:18.259Z,15.3
2018-09-19T01:31:18.301Z,15.34
2018-09-19T01:32:18.324Z,15.18
2018-09-19T01:33:18.248Z,15.19
2018-09-19T01:34:18.241Z,15.27
2018-09-19T01:35:18.234Z,15.23
2018-09-19T01:36:18.223Z,15.19
2018-09-19T01:37:18.221Z,15.25
2018-09-19T01:38:18.238Z,15.22
2018-09-19T01:39:18.210Z,15.2
2018-09-19T01:40:17.943Z,15.23
2018-09-19T01:41:18.216Z,15.2
2018-09-19T01:42:17.935Z,15.25
2018-09-19T01:43:18.191Z,15.19
2018-09-19T01:44:18.183Z,15.26
2018-09-19T01:45:18.242Z,15.23
2018-09-19T01:46:18.176Z,15.19
2018-09-19T01:47:17.903Z,15.22
2018-09-19T01:48:18.164Z,15.22
2018-09-19T01:49:18.159Z,15.2
2018-09-19T01:50:18.158Z,15.22
2018-09-19T01:51:18.136Z,15.2
2018-09-19T01:52:18.232Z,15.16
2018-09-19T01:53:18.133Z,15.13
2018-09-19T01:54:18.118Z,15.08
2018-09-19T01:55:18.111Z,15.08
2018-09-19T01:56:18.181Z,15.2
2018-09-19T01:57:18.169Z,15.02
2018-09-19T01:58:18.099Z,15.16
2018-09-19T01:59:18.098Z,15.1
2018-09-19T02:00:18.110Z,15.08
2018-09-19T02:01:18.086Z,15.1
2018-09-19T02:02:17.832Z,15.05
2018-09-19T02:03:18.082Z,15.13
2018-09-19T02:04:17.807Z,15.05
2018-09-19T02:05:18.056Z,15.07
2018-09-19T02:06:18.054Z,15.01
2018-09-19T02:07:18.058Z,14.95
2018-09-19T02:08:18.033Z,15.01
2018-09-19T02:09:18.038Z,14.97
2018-09-19T02:10:17.824Z,14.98
2018-09-19T02:11:18.036Z,15.01
2018-09-19T02:12:17.755Z,14.95
2018-09-19T02:13:18.011Z,14.86
2018-09-19T02:14:18.010Z,14.89
2018-09-19T02:15:18.005Z,14.85
2018-09-19T02:16:18.003Z,14.8
2018-09-19T02:17:17.993Z,14.87
2018-09-19T02:18:17.979Z,14.85
2018-09-19T02:19:17.969Z,14.85
2018-09-19T02:20:17.967Z,14.8
2018-09-19T02:21:18.012Z,14.8
2018-09-19T02:22:17.974Z,14.74
2018-09-19T02:23:17.958Z,14.71
2018-09-19T02:24:17.949Z,14.69
2018-09-19T02:25:17.934Z,14.75
2018-09-19T02:26:17.936Z,14.75
2018-09-19T02:27:17.931Z,14.74
2018-09-19T02:28:17.967Z,14.66
2018-09-19T02:29:17.911Z,14.67
2018-09-19T02:30:17.936Z,14.66
2018-09-19T02:31:17.925Z,14.63
2018-09-19T02:32:17.649Z,14.71
2018-09-19T02:33:17.897Z,14.71
2018-09-19T02:34:17.889Z,14.75
2018-09-19T02:35:17.885Z,14.66
2018-09-19T02:36:17.863Z,14.69
2018-09-19T02:37:17.938Z,14.69
2018-09-19T02:38:17.871Z,14.67
2018-09-19T02:39:17.850Z,14.61
2018-09-19T02:40:17.855Z,14.56
2018-09-19T02:41:17.888Z,14.6
2018-09-19T02:42:17.846Z,14.51
2018-09-19T02:43:17.844Z,14.52
2018-09-19T02:44:17.824Z,14.57
2018-09-19T02:45:17.825Z,14.46
2018-09-19T02:46:17.811Z,14.51
2018-09-19T02:47:17.832Z,14.6
2018-09-19T02:48:17.802Z,14.51
2018-09-19T02:49:17.797Z,14.48
2018-09-19T02:50:17.786Z,14.52
2018-09-19T02:51:17.528Z,14.56
2018-09-19T02:52:17.776Z,14.52
2018-09-19T02:53:17.795Z,14.53
2018-09-19T02:54:17.759Z,14.49
2018-09-19T02:55:17.752Z,14.48
2018-09-19T02:56:17.751Z,14.51
2018-09-19T02:57:17.482Z,14.46
2018-09-19T02:58:17.472Z,14.45
2018-09-19T02:59:17.465Z,14.52
2018-09-19T03:00:17.720Z,14.52
2018-09-19T03:01:17.746Z,14.52
2018-09-19T03:02:17.742Z,14.51
2018-09-19T03:03:17.705Z,14.49
2018-09-19T03:04:17.692Z,14.48
2018-09-19T03:05:17.440Z,14.52
2018-09-19T03:06:17.685Z,14.49
2018-09-19T03:07:17.679Z,14.48
2018-09-19T03:08:17.670Z,14.48
2018-09-19T03:09:17.669Z,14.52
2018-09-19T03:10:17.688Z,14.51
2018-09-19T03:11:17.695Z,14.48
2018-09-19T03:12:17.649Z,14.49
2018-09-19T03:13:17.638Z,14.41
2018-09-19T03:14:17.386Z,14.3
2018-09-19T03:15:17.639Z,14.44
2018-09-19T03:16:17.628Z,14.36
2018-09-19T03:17:17.948Z,14.36
2018-09-19T03:18:17.610Z,14.33
2018-09-19T03:19:17.603Z,14.38
2018-09-19T03:20:17.332Z,14.39
2018-09-19T03:21:17.588Z,14.34
2018-09-19T03:22:17.324Z,14.28
2018-09-19T03:23:17.580Z,14.42
2018-09-19T03:24:17.586Z,14.26
2018-09-19T03:25:17.576Z,14.38
2018-09-19T03:26:17.567Z,14.3
2018-09-19T03:27:17.547Z,14.36
2018-09-19T03:28:17.539Z,14.28
2018-09-19T03:29:17.539Z,14.28
2018-09-19T03:30:17.532Z,14.33
2018-09-19T03:31:17.264Z,14.26
2018-09-19T03:32:17.532Z,14.28
2018-09-19T03:33:17.510Z,14.27
2018-09-19T03:34:17.504Z,14.28
2018-09-19T03:35:17.679Z,14.27
2018-09-19T03:36:17.485Z,14.3
2018-09-19T03:37:17.238Z,14.26
2018-09-19T03:38:17.519Z,14.27
2018-09-19T03:39:17.470Z,14.26
2018-09-19T03:40:17.480Z,14.28
2018-09-19T03:41:17.514Z,14.23
2018-09-19T03:42:17.194Z,14.27
2018-09-19T03:43:17.451Z,14.26
2018-09-19T03:44:17.472Z,14.24
2018-09-19T03:45:17.438Z,14.27
2018-09-19T03:46:17.424Z,14.21
2018-09-19T03:47:17.415Z,14.3
2018-09-19T03:48:17.413Z,14.21
2018-09-19T03:49:17.398Z,14.27
2018-09-19T03:50:17.395Z,14.28
2018-09-19T03:51:18.594Z,14.24
2018-09-19T03:52:17.385Z,14.28
2018-09-19T03:53:17.378Z,14.26
2018-09-19T03:54:17.129Z,14.27
2018-09-19T03:57:14.913Z,14.21
2018-09-19T03:58:15.286Z,14.26
2018-09-19T03:59:14.908Z,14.28
2018-09-19T04:02:00.289Z,14.2
2018-09-19T04:03:29.591Z,14.2
2018-09-19T04:04:00.280Z,14.21
2018-09-19T04:05:00.027Z,14.23
2018-09-19T04:06:00.267Z,14.26
2018-09-19T04:08:23.148Z,14.31
2018-09-19T04:08:32.625Z,14.27
2018-09-19T04:09:32.867Z,14.27
2018-09-19T04:10:32.860Z,14.28
2018-09-19T04:11:32.864Z,14.27
2018-09-19T04:12:32.635Z,14.26
2018-09-19T04:13:32.581Z,14.31
2018-09-19T04:14:32.838Z,14.24
2018-09-19T04:15:32.842Z,14.23
2018-09-19T04:16:32.842Z,14.24
2018-09-19T04:17:32.833Z,14.31
2018-09-19T04:18:32.565Z,14.24
2018-09-19T04:19:32.545Z,14.36
2018-09-19T04:20:32.813Z,14.27
2018-09-19T04:21:32.785Z,14.26
2018-09-19T04:22:32.783Z,14.33
2018-09-19T04:23:32.522Z,14.3
2018-09-19T04:24:32.512Z,14.3
2018-09-19T04:25:32.769Z,14.33
2018-09-19T04:26:32.506Z,14.31
2018-09-19T04:27:32.744Z,14.27
2018-09-19T04:28:32.739Z,14.39
2018-09-19T04:29:32.486Z,14.3
2018-09-19T04:30:32.473Z,14.31
2018-09-19T04:31:32.718Z,14.31
2018-09-19T04:32:32.570Z,14.41
2018-09-19T04:33:32.483Z,14.45
2018-09-19T04:34:32.462Z,14.39
2018-09-19T04:35:32.705Z,14.39
2018-09-19T04:36:32.702Z,14.45
2018-09-19T04:37:32.679Z,14.49
2018-09-19T04:38:32.674Z,14.51
2018-09-19T04:39:32.671Z,14.49
2018-09-19T04:40:32.662Z,14.6
2018-09-19T04:41:32.676Z,14.63
2018-09-19T04:42:32.407Z,14.6
2018-09-19T04:43:32.645Z,14.7
2018-09-19T04:44:32.652Z,14.64
2018-09-19T04:45:32.636Z,14.69
2018-09-19T04:46:32.104Z,14.75
2018-09-19T04:47:32.354Z,14.64
2018-09-19T04:48:32.617Z,14.8
2018-09-19T04:49:32.607Z,14.82
2018-09-19T04:50:32.654Z,14.71
2018-09-19T04:51:32.945Z,14.89
2018-09-19T04:55:29.861Z,14.95
2018-09-19T04:56:29.859Z,14.98
2018-09-19T04:57:29.849Z,15
2018-09-19T04:58:30.114Z,15.01
2018-09-19T04:59:30.101Z,15.01
2018-09-19T05:00:30.227Z,15.04
2018-09-19T05:01:30.085Z,15.02
2018-09-19T05:02:30.084Z,15.13
2018-09-19T05:03:29.824Z,15.19
2018-09-19T05:04:30.069Z,15.26
2018-09-19T05:05:30.178Z,15.34
2018-09-19T05:06:30.088Z,15.37
2018-09-19T05:07:30.421Z,15.34
2018-09-19T05:08:30.054Z,15.4
2018-09-19T05:09:30.061Z,15.41
2018-09-19T05:10:29.780Z,15.44
2018-09-19T05:11:29.980Z,15.43
2018-09-19T05:12:30.025Z,15.4
2018-09-19T05:13:30.018Z,15.51
2018-09-19T05:14:30.025Z,15.51
2018-09-19T05:15:29.995Z,15.53
2018-09-19T05:16:29.991Z,15.52
2018-09-19T05:17:29.986Z,15.59
2018-09-19T05:18:29.985Z,15.59
2018-09-19T05:19:29.461Z,15.7
2018-09-19T05:20:29.982Z,15.63
2018-09-19T05:21:29.963Z,15.73
2018-09-19T05:22:29.971Z,15.73
2018-09-19T05:23:29.957Z,15.74
2018-09-19T05:24:29.955Z,15.77
2018-09-19T05:25:29.946Z,15.89
2018-09-19T05:26:29.932Z,15.89
2018-09-19T05:27:29.691Z,15.93
2018-09-19T05:28:29.928Z,15.84
2018-09-19T05:29:29.400Z,15.91
2018-09-19T05:30:29.916Z,15.92
2018-09-19T05:31:29.988Z,16.02
2018-09-19T05:32:29.896Z,16.02
2018-09-19T05:33:29.900Z,15.96
2018-09-19T05:34:29.631Z,16.07
2018-09-19T05:35:29.881Z,16.11
2018-09-19T05:36:29.877Z,16.18
2018-09-19T05:37:29.614Z,16.17
2018-09-19T05:38:29.869Z,16.11
2018-09-19T05:39:29.865Z,16.25
2018-09-19T05:40:29.861Z,16.29
2018-09-19T05:41:29.603Z,16.29
2018-09-19T05:42:29.858Z,16.21
2018-09-19T05:43:29.845Z,16.21
2018-09-19T05:44:29.838Z,16.25
2018-09-19T05:52:43.066Z,16.44
2018-09-19T05:53:43.048Z,16.37
2018-09-19T05:54:43.317Z,16.45
2018-09-19T05:55:42.804Z,16.52
2018-09-19T05:56:43.034Z,16.48
2018-09-19T06:08:48.632Z,16.82
2018-09-19T06:09:48.624Z,16.84
2018-09-19T06:10:48.358Z,16.85
2018-09-19T06:11:48.615Z,16.94
2018-09-19T06:12:48.815Z,16.95
2018-09-19T06:13:48.616Z,17.07
2018-09-19T06:14:48.612Z,17.05
2018-09-19T06:15:48.332Z,17.1
2018-09-19T06:16:48.597Z,17.15
2018-09-19T06:17:48.593Z,17.2
2018-09-19T06:18:48.652Z,17.2
2018-09-19T06:19:48.320Z,17.46
2018-09-19T06:20:48.581Z,17.5
2018-09-19T06:21:48.311Z,17.55
2018-09-19T06:22:48.569Z,17.63
2018-09-19T06:23:48.559Z,17.71
2018-09-19T06:24:48.299Z,17.84
2018-09-19T06:25:48.555Z,17.94
2018-09-19T06:26:48.307Z,17.99
2018-09-19T06:27:48.623Z,18.03
2018-09-19T06:28:48.528Z,18.19
2018-09-19T06:29:48.540Z,18.23
2018-09-19T06:30:48.531Z,18.34
2018-09-19T06:31:48.523Z,18.34
2018-09-19T06:32:48.656Z,18.32
2018-09-19T06:33:48.516Z,18.32
2018-09-19T06:34:48.521Z,18.34
2018-09-19T06:35:48.506Z,18.32
2018-09-19T06:36:48.549Z,18.31
2018-09-19T06:37:48.498Z,18.36
2018-09-19T06:38:48.499Z,18.06
2018-09-19T06:39:48.240Z,17.81
2018-09-19T06:40:48.627Z,17.8
2018-09-19T06:41:48.222Z,17.69
2018-09-19T06:42:48.506Z,17.46
2018-09-19T06:43:48.486Z,17.43
2018-09-19T06:44:48.212Z,17.32
2018-09-19T06:45:48.806Z,17.2
2018-09-19T06:48:36.913Z,17.06
2018-09-19T06:49:36.656Z,17.05
2018-09-19T06:50:36.654Z,17.06
2018-09-19T06:51:36.906Z,17.03
2018-09-19T06:52:37.207Z,16.92
2018-09-19T06:53:36.904Z,16.95
2018-09-19T06:54:36.891Z,16.88
2018-09-19T06:55:36.923Z,16.82
2018-09-19T06:56:36.623Z,16.8
2018-09-19T06:57:36.874Z,16.81
2018-09-19T06:58:36.873Z,16.72
2018-09-19T06:59:36.999Z,16.66
2018-09-19T07:00:36.874Z,16.66
2018-09-19T07:01:36.863Z,16.62
2018-09-19T07:02:36.607Z,16.55
2018-09-19T07:03:36.863Z,16.62
2018-09-19T07:04:36.844Z,16.51
2018-09-19T07:05:36.879Z,16.42
2018-09-19T07:06:36.849Z,16.51
2018-09-19T07:07:36.834Z,16.51
2018-09-19T07:08:36.831Z,16.49
2018-09-19T07:09:36.817Z,16.48
2018-09-19T07:10:36.699Z,16.51
2018-09-19T07:11:36.815Z,16.45
2018-09-19T07:12:36.846Z,16.44
2018-09-19T07:13:36.802Z,16.36
2018-09-19T07:14:36.796Z,16.44
2018-09-19T07:15:36.791Z,16.4
2018-09-19T07:16:36.784Z,16.39
2018-09-19T07:17:36.783Z,16.44
2018-09-19T07:18:36.782Z,16.34
2018-09-19T07:19:36.774Z,16.34
2018-09-19T07:20:36.782Z,16.33
2018-09-19T07:21:36.766Z,16.34
2018-09-19T07:22:36.776Z,16.36
2018-09-19T07:23:36.845Z,16.33
2018-09-19T07:24:36.493Z,16.33
2018-09-19T07:25:36.512Z,16.32
2018-09-19T07:26:36.750Z,16.29
2018-09-19T07:27:36.478Z,16.33
2018-09-19T07:28:36.736Z,16.27
2018-09-19T07:29:36.729Z,16.26
2018-09-19T07:30:36.757Z,16.29
2018-09-19T07:31:36.727Z,16.32
2018-09-19T07:32:36.718Z,16.29
2018-09-19T07:33:36.707Z,16.3
2018-09-19T07:34:36.700Z,16.3
2018-09-19T07:35:36.487Z,16.27
2018-09-19T07:36:36.719Z,16.29
2018-09-19T07:37:36.429Z,16.26
2018-09-19T07:38:36.686Z,16.27
2018-09-19T07:39:36.681Z,16.3
2018-09-19T07:40:36.680Z,16.33
2018-09-19T07:41:36.665Z,16.33
2018-09-19T07:42:36.686Z,16.39
2018-09-19T07:43:36.441Z,16.34
2018-09-19T07:44:36.657Z,16.32
2018-09-19T07:45:36.393Z,16.37
2018-09-19T07:46:36.969Z,16.36
2018-09-19T07:47:36.637Z,16.39
2018-09-19T07:48:36.657Z,16.47
2018-09-19T07:49:36.629Z,16.55
2018-09-19T07:50:36.643Z,16.48
2018-09-19T07:51:36.367Z,16.49
2018-09-19T07:52:36.614Z,16.52
2018-09-19T07:53:36.358Z,16.54
2018-09-19T07:54:36.883Z,16.59
2018-09-19T07:55:36.641Z,16.62
2018-09-19T07:56:36.600Z,16.59
2018-09-19T07:57:36.337Z,16.58
2018-09-19T07:58:36.583Z,16.59
2018-09-19T07:59:36.588Z,16.62
2018-09-19T08:00:36.819Z,16.63
2018-09-19T08:01:36.572Z,16.62
2018-09-19T08:02:36.568Z,16.59
2018-09-19T08:03:36.560Z,16.63
2018-09-19T08:04:36.314Z,16.62
2018-09-19T08:05:36.559Z,16.62
2018-09-19T08:06:36.293Z,16.59
2018-09-19T08:07:36.546Z,16.59
2018-09-19T08:08:36.278Z,16.58
2018-09-19T08:09:36.539Z,16.59
2018-09-19T08:10:36.277Z,16.66
2018-09-19T08:11:36.263Z,16.62
2018-09-19T08:12:36.530Z,16.69
2018-09-19T08:13:36.512Z,16.69
2018-09-19T08:14:36.523Z,16.69
2018-09-19T08:15:36.246Z,16.7
2018-09-19T08:16:36.301Z,16.76
2018-09-19T08:17:36.495Z,16.7
2018-09-19T08:18:36.493Z,16.72
2018-09-19T08:19:36.485Z,16.81
2018-09-19T08:20:36.527Z,16.76
2018-09-19T08:21:36.499Z,16.84
2018-09-19T08:22:36.482Z,16.85
2018-09-19T08:23:36.216Z,16.91
2018-09-19T08:24:36.464Z,16.88
2018-09-19T08:25:36.467Z,16.99
2018-09-19T08:26:36.462Z,16.97
2018-09-19T08:27:36.450Z,16.97
2018-09-19T08:28:36.211Z,17.03
2018-09-19T08:29:36.462Z,16.99
2018-09-19T08:30:36.440Z,17.09
2018-09-19T08:31:36.174Z,17.03
2018-09-19T08:32:36.430Z,17.02
2018-09-19T08:33:36.181Z,17.15
2018-09-19T08:34:36.423Z,17.15
2018-09-19T08:35:36.156Z,17.17
2018-09-19T08:36:36.425Z,17.32
2018-09-19T08:37:36.169Z,17.38
2018-09-19T08:38:36.403Z,17.62
2018-09-19T08:39:36.397Z,17.62
2018-09-19T08:40:36.394Z,17.58
2018-09-19T08:41:36.395Z,17.65
2018-09-19T08:42:36.126Z,17.8
2018-09-19T08:43:36.383Z,17.84
2018-09-19T08:44:36.443Z,17.92
2018-09-19T08:45:36.380Z,18.01
2018-09-19T08:46:36.373Z,18.1
2018-09-19T08:47:36.359Z,18.06
2018-09-19T08:48:36.368Z,18.16
2018-09-19T08:49:36.353Z,18.23
2018-09-19T08:50:36.590Z,18.21
2018-09-19T08:51:36.347Z,18.32
2018-09-19T08:52:36.353Z,18.38
2018-09-19T08:53:36.346Z,18.41
2018-09-19T08:54:36.338Z,18.47
2018-09-19T08:55:36.342Z,18.45
2018-09-19T08:56:36.343Z,18.5
2018-09-19T08:57:36.331Z,18.53
2018-09-19T08:58:36.318Z,18.59
2018-09-19T08:59:36.060Z,18.61
2018-09-19T09:00:36.319Z,18.79
2018-09-19T09:01:36.063Z,18.87
2018-09-19T09:02:36.050Z,18.91
2018-09-19T09:03:36.317Z,19.06
2018-09-19T09:04:36.312Z,19.06
2018-09-19T09:05:36.393Z,19.13
2018-09-19T09:06:36.299Z,19.27
2018-09-19T09:07:36.298Z,19.31
2018-09-19T09:08:36.292Z,19.25
2018-09-19T09:09:36.288Z,19.35
2018-09-19T09:10:36.318Z,19.28
2018-09-19T09:11:36.336Z,19.31
2018-09-19T09:12:36.121Z,19.43
2018-09-19T09:13:36.345Z,19.49
2018-09-19T09:14:36.278Z,19.52
2018-09-19T09:15:36.271Z,19.53
2018-09-19T09:16:36.001Z,19.55
2018-09-19T09:17:36.257Z,19.55
2018-09-19T09:18:36.256Z,19.5
2018-09-19T09:19:36.256Z,19.65
2018-09-19T09:20:36.314Z,19.65
2018-09-19T09:21:36.252Z,19.67
2018-09-19T09:22:36.247Z,19.71
2018-09-19T09:23:36.250Z,19.85
2018-09-19T09:24:36.235Z,19.93
2018-09-19T09:25:35.981Z,19.87
2018-09-19T09:26:36.244Z,19.92
2018-09-19T09:27:36.241Z,19.92
2018-09-19T09:28:35.968Z,19.97
2018-09-19T09:29:36.241Z,20
2018-09-19T09:30:36.222Z,20.02
2018-09-19T09:31:35.970Z,20
2018-09-19T09:32:36.234Z,20.08
2018-09-19T09:33:36.218Z,20.01
2018-09-19T09:34:35.963Z,20.12
2018-09-19T09:35:36.215Z,20.08
2018-09-19T09:36:36.269Z,20.11
2018-09-19T09:37:36.217Z,20.01
2018-09-19T09:38:36.204Z,20.01
2018-09-19T09:39:35.688Z,20
2018-09-19T09:40:36.445Z,20.02
2018-09-19T09:41:36.216Z,20.11
2018-09-19T09:42:36.221Z,20.2
2018-09-19T09:43:36.443Z,20.2
2018-09-19T09:44:35.934Z,20.16
2018-09-19T09:45:36.201Z,20.05
2018-09-19T09:46:36.200Z,20.07
2018-09-19T09:47:36.179Z,20.01
2018-09-19T09:48:35.923Z,20.02
2018-09-19T09:49:36.184Z,19.97
2018-09-19T09:50:36.180Z,20.04
2018-09-19T09:51:36.216Z,20
2018-09-19T09:52:36.174Z,19.87
2018-09-19T09:53:35.656Z,20.02
2018-09-19T09:54:36.168Z,20.02
2018-09-19T09:55:36.163Z,20
2018-09-19T09:56:36.167Z,20.02
2018-09-19T09:57:36.163Z,20.04
2018-09-19T09:58:36.161Z,20.11
2018-09-19T09:59:36.156Z,20.11
2018-09-19T10:00:36.165Z,20.32
2018-09-19T10:01:36.162Z,20.34
2018-09-19T10:02:35.898Z,20.48
2018-09-19T10:03:36.154Z,20.44
2018-09-19T10:04:35.890Z,20.64
2018-09-19T10:05:36.149Z,20.72
2018-09-19T10:06:36.268Z,20.86
2018-09-19T10:07:36.146Z,21
2018-09-19T10:08:36.156Z,21.13
2018-09-19T10:09:36.145Z,21.25
2018-09-19T10:10:35.882Z,21.25
2018-09-19T10:11:35.878Z,21.46
2018-09-19T10:12:36.134Z,21.59
2018-09-19T10:13:36.225Z,21.78
2018-09-19T10:14:36.131Z,21.92
2018-09-19T10:15:35.872Z,21.99
2018-09-19T10:16:36.128Z,22.14
2018-09-19T10:17:36.120Z,22.23
2018-09-19T10:18:36.116Z,22.22
2018-09-19T10:19:36.119Z,22.33
2018-09-19T10:20:36.127Z,22.38
2018-09-19T10:21:36.119Z,22.41
2018-09-19T10:22:36.114Z,22.39
2018-09-19T10:23:35.855Z,22.42
2018-09-19T10:24:35.859Z,22.55
2018-09-19T10:25:36.120Z,22.48
2018-09-19T10:26:36.109Z,22.57
2018-09-19T10:27:36.110Z,22.63
2018-09-19T10:28:36.110Z,22.67
2018-09-19T10:29:35.946Z,22.67
2018-09-19T10:30:36.106Z,22.69
2018-09-19T10:31:36.107Z,22.63
2018-09-19T10:32:36.104Z,22.64
2018-09-19T10:33:36.104Z,22.6
2018-09-19T10:34:36.108Z,22.63
2018-09-19T10:35:36.297Z,22.67
2018-09-19T10:36:35.845Z,22.66
2018-09-19T10:37:36.102Z,22.73
2018-09-19T10:38:35.842Z,22.71
2018-09-19T10:39:36.099Z,22.76
2018-09-19T10:40:36.097Z,22.81
2018-09-19T10:41:35.843Z,22.7
2018-09-19T10:42:36.096Z,22.64
2018-09-19T10:43:36.099Z,22.6
2018-09-19T10:44:36.096Z,22.67
2018-09-19T10:45:36.101Z,22.75
2018-09-19T10:46:35.839Z,22.75
2018-09-19T10:47:35.843Z,22.73
2018-09-19T10:48:36.094Z,22.76
2018-09-19T10:49:36.279Z,22.75
2018-09-19T10:50:35.836Z,22.75
2018-09-19T10:51:36.092Z,22.73
2018-09-19T10:52:36.090Z,22.79
2018-09-19T10:53:36.162Z,22.79
2018-09-19T10:54:35.834Z,22.81
2018-09-19T10:55:36.154Z,22.81
2018-09-19T10:56:36.092Z,22.86
2018-09-19T10:57:36.095Z,22.89
2018-09-19T10:58:36.088Z,22.81
2018-09-19T10:59:36.085Z,22.91
2018-09-19T11:00:36.091Z,22.97
2018-09-19T11:01:35.573Z,23.04
2018-09-19T11:02:36.085Z,23.12
2018-09-19T11:03:36.091Z,23.09
2018-09-19T11:04:35.835Z,23.21
2018-09-19T11:05:36.087Z,23.21
2018-09-19T11:06:35.828Z,23.28
2018-09-19T11:07:36.091Z,23.26
2018-09-19T11:08:35.829Z,23.37
2018-09-19T11:09:35.829Z,23.25
2018-09-19T11:10:35.826Z,23.37
2018-09-19T11:11:36.085Z,23.4
2018-09-19T11:12:36.090Z,23.38
2018-09-19T11:13:36.085Z,23.4
2018-09-19T11:14:36.081Z,23.38
2018-09-19T11:15:36.085Z,23.37
2018-09-19T11:16:35.879Z,23.37
2018-09-19T11:17:36.095Z,23.47
2018-09-19T11:18:36.082Z,23.52
2018-09-19T11:19:36.088Z,23.41
2018-09-19T11:20:36.083Z,23.47
2018-09-19T11:21:35.827Z,23.48
2018-09-19T11:22:36.082Z,23.53
2018-09-19T11:23:36.083Z,23.5
2018-09-19T11:24:35.825Z,23.57
2018-09-19T11:25:36.083Z,23.74
2018-09-19T11:26:36.336Z,23.74
2018-09-19T11:27:36.082Z,23.77
2018-09-19T11:28:35.569Z,23.74
2018-09-19T11:29:36.083Z,23.75
2018-09-19T11:30:36.086Z,23.82
2018-09-19T11:31:36.095Z,23.78
2018-09-19T11:32:36.088Z,23.79
2018-09-19T11:33:36.222Z,23.78
2018-09-19T11:34:36.089Z,23.79
2018-09-19T11:35:36.086Z,23.85
2018-09-19T11:36:36.086Z,23.99
2018-09-19T11:37:36.088Z,24.03
2018-09-19T11:38:35.827Z,24.07
2018-09-19T11:39:36.085Z,24.02
2018-09-19T11:40:36.090Z,24.03
2018-09-19T11:41:36.088Z,24.09
2018-09-19T11:42:36.088Z,24.07
2018-09-19T11:43:36.089Z,24.12
2018-09-19T11:44:35.833Z,24.04
2018-09-19T11:45:36.093Z,24.02
2018-09-19T11:46:36.094Z,24.09
2018-09-19T11:47:36.091Z,24.17
2018-09-19T11:48:35.863Z,24.17
2018-09-19T11:49:36.091Z,24.15
2018-09-19T11:50:36.094Z,24.17
2018-09-19T11:51:35.842Z,24.21
2018-09-19T11:52:35.844Z,24.27
2018-09-19T11:53:35.844Z,24.24
2018-09-19T11:54:36.103Z,24.24
2018-09-19T11:55:36.098Z,24.15
2018-09-19T11:56:36.096Z,24.14
2018-09-19T11:57:35.840Z,24.21
2018-09-19T11:58:35.843Z,24.26
2018-09-19T11:59:35.843Z,24.33
2018-09-19T12:00:36.105Z,24.22
2018-09-19T12:01:36.100Z,24.32
2018-09-19T12:02:36.104Z,24.33
2018-09-19T12:03:35.849Z,24.33
2018-09-19T12:04:36.113Z,24.4
2018-09-19T12:05:35.846Z,24.33
2018-09-19T12:06:36.108Z,24.37
2018-09-19T12:07:36.122Z,24.4
2018-09-19T12:08:35.851Z,24.45
2018-09-19T12:09:35.850Z,24.39
2018-09-19T12:10:36.107Z,24.4
2018-09-19T12:11:36.111Z,24.39
2018-09-19T12:12:36.110Z,24.34
2018-09-19T12:13:35.858Z,24.32
2018-09-19T12:14:36.136Z,24.32
2018-09-19T12:15:35.859Z,24.36
2018-09-19T12:16:35.855Z,24.39
2018-09-19T12:17:36.114Z,24.39
2018-09-19T12:18:35.859Z,24.33
2018-09-19T12:19:36.367Z,24.37
2018-09-19T12:20:36.123Z,24.33
2018-09-19T12:21:36.116Z,24.3
2018-09-19T12:22:36.124Z,24.33
2018-09-19T12:23:36.121Z,24.36
2018-09-19T12:24:36.121Z,24.45
2018-09-19T12:25:35.868Z,24.42
2018-09-19T12:26:36.304Z,24.33
2018-09-19T12:27:36.124Z,24.46
2018-09-19T12:28:35.872Z,24.45
2018-09-19T12:29:36.132Z,24.44
2018-09-19T12:30:36.131Z,24.55
2018-09-19T12:31:36.128Z,24.58
2018-09-19T12:32:36.128Z,24.61
2018-09-19T12:33:35.873Z,24.63
2018-09-19T12:34:36.139Z,24.59
2018-09-19T12:35:36.141Z,24.61
2018-09-19T12:36:36.134Z,24.63
2018-09-19T12:37:36.138Z,24.64
2018-09-19T12:38:36.136Z,24.59
2018-09-19T12:39:36.424Z,24.56
2018-09-19T12:40:36.141Z,24.61
2018-09-19T12:41:36.140Z,24.58
2018-09-19T12:42:36.141Z,24.71
2018-09-19T12:43:35.889Z,24.74
2018-09-19T12:44:36.146Z,24.71
2018-09-19T12:45:35.634Z,24.67
2018-09-19T12:46:35.635Z,24.58
2018-09-19T12:47:35.636Z,24.58
2018-09-19T12:48:35.892Z,24.61
2018-09-19T12:49:36.154Z,24.67
2018-09-19T12:50:35.896Z,24.63
2018-09-19T12:51:36.156Z,24.75
2018-09-19T12:52:36.156Z,24.7
2018-09-19T12:53:35.645Z,24.83
2018-09-19T12:54:36.159Z,24.83
2018-09-19T12:55:36.160Z,24.87
2018-09-19T12:56:36.167Z,24.83
2018-09-19T12:57:36.313Z,24.97
2018-09-19T12:58:35.907Z,24.96
2018-09-19T12:59:36.170Z,24.85
2018-09-19T13:00:35.909Z,24.96
2018-09-19T13:01:36.171Z,24.97
2018-09-19T13:02:36.168Z,24.94
2018-09-19T13:03:36.172Z,25.01
2018-09-19T13:04:35.663Z,24.8
2018-09-19T13:05:36.177Z,24.85
2018-09-19T13:06:36.180Z,24.83
2018-09-19T13:07:36.183Z,24.86
2018-09-19T13:08:35.757Z,24.85
2018-09-19T13:09:36.193Z,24.96
2018-09-19T13:10:36.190Z,25.01
2018-09-19T13:11:36.203Z,24.92
2018-09-19T13:12:36.193Z,24.97
2018-09-19T13:13:35.932Z,24.94
2018-09-19T13:14:35.937Z,25.02
2018-09-19T13:15:35.940Z,25.07
2018-09-19T13:16:35.939Z,25.02
2018-09-19T13:17:36.199Z,25.02
2018-09-19T13:18:36.209Z,25
2018-09-19T13:19:36.202Z,24.96
2018-09-19T13:20:36.205Z,25.11
2018-09-19T13:21:35.953Z,25.11
2018-09-19T13:22:35.692Z,25.17
2018-09-19T13:23:35.949Z,25.19
2018-09-19T13:24:36.209Z,25.11
2018-09-19T13:25:36.212Z,25.2
2018-09-19T13:26:36.221Z,25.19